CheckWX is a tool to help pilots better visualize weather data.  It is not intended as a substitute for an official pre-flight weather briefing.

21:12:45 UTC

KCXW METAR
Cantrell Field Airport Airport
Conway, Arkansas, USA
Current

18 mins ago

KCXW 102055Z AUTO 31005KT 10SM CLR 33/23 A3000 RMK A01
Observed
Jul-10 @ 20:55 UTC
Wind
  • 310° at 5 KTS
Visibility
10 SM
Flight Rules
VFR
Cloud Levels
  • Clear skies
Temperature
33°C / 91°F
Dewpoint
23°C / 73°F
Humidity
56%
Altimeter
30" Hg
Pressure
1015.92 hPa
Previous

38 mins ago

KCXW 102035Z AUTO VRB04KT 10SM FEW100 33/23 A3000 RMK A01
Observed
Jul-10 @ 20:35 UTC
Wind
  • Variable at 4 KTS
Visibility
10 SM
Flight Rules
VFR
Cloud Levels
  • Few at 10,000' AGL
Temperature
33°C / 91°F
Dewpoint
23°C / 73°F
Humidity
56%
Altimeter
30" Hg
Pressure
1015.92 hPa
Previous

1 hour ago

KCXW 102010Z AUTO 31004KT 10SM CLR 33/23 A3001 RMK A01
Observed
Jul-10 @ 20:10 UTC
Wind
  • 310° at 4 KTS
Visibility
10 SM
Flight Rules
VFR
Cloud Levels
  • Clear skies
Temperature
33°C / 91°F
Dewpoint
23°C / 73°F
Humidity
56%
Altimeter
30.01" Hg
Pressure
1016.22 hPa